Time;durP1;ratioP1;P1;durP2;ratioP2;P2;SDS_P1;SDS_P2;PMS_P1;PMS_P2;Temp;Humidity;BMP_temperature;BMP_pressure;BME280_temperature;BME280_humidity;BME280_pressure;Samples;Min_cycle;Max_cycle;Signal;HPM_P1;HPM_P2
2022/12/10 00:02:50;;;;;;;29.40;11.65;;;;;;;5.61;80.45;100493.98;1803786;79;21635;-55
2022/12/10 00:07:00;;;;;;;34.60;14.00;;;;;;;5.60;80.43;100507.17;1792601;79;21177;-55
2022/12/10 00:11:03;;;;;;;38.65;11.78;;;;;;;5.61;80.45;100511.63;1713632;83;21766;-55
2022/12/10 00:15:03;;;;;;;44.27;14.10;;;;;;;5.62;80.51;100513.33;1702480;84;21204;-54
2022/12/10 00:19:00;;;;;;;45.33;13.53;;;;;;;5.62;80.52;100509.27;1715010;81;21662;-59
2022/12/10 00:23:17;;;;;;;44.30;13.40;;;;;;;5.60;80.41;100508.05;1712635;83;21231;-58
2022/12/10 00:27:11;;;;;;;36.35;12.75;;;;;;;5.54;80.28;100500.47;1674988;84;21469;-54
2022/12/10 00:31:02;;;;;;;62.23;14.03;;;;;;;5.50;80.32;100513.12;1618143;88;21764;-55
2022/12/10 00:49:32;;;;;;;42.65;11.55;;;;;;;5.45;80.62;100505.89;1855265;76;22276;-54
2022/12/10 00:53:38;;;;;;;45.28;10.98;;;;;;;5.40;80.64;100509.52;1788497;79;21725;-58
2022/12/10 00:57:26;;;;;;;63.58;12.23;;;;;;;5.42;80.56;100489.88;1876788;75;22341;-59
2022/12/10 01:01:46;;;;;;;48.17;11.78;;;;;;;5.36;80.55;100494.52;1783286;78;21323;-60
2022/12/10 01:04:59;;;;;;;51.58;12.82;;;;;;;5.33;80.55;100489.34;1699921;79;21259;-55
2022/12/10 01:08:25;;;;;;;79.27;13.05;;;;;;;5.33;80.60;100479.84;1706588;80;21172;-56
2022/12/10 01:11:36;;;;;;;70.75;12.80;;;;;;;5.31;80.59;100476.44;1676526;82;21347;-58
2022/12/10 01:15:31;;;;;;;68.83;13.30;;;;;;;5.27;80.57;100466.36;1668858;82;21923;-58
2022/12/10 01:19:08;;;;;;;64.15;13.38;;;;;;;5.25;80.69;100463.44;1703262;80;21288;-60
2022/12/10 01:23:00;;;;;;;66.12;13.60;;;;;;;5.20;80.67;100461.11;1732503;79;21252;-59
2022/12/10 01:26:51;;;;;;;66.12;13.13;;;;;;;5.20;80.74;100462.99;1732006;81;21258;-58
2022/12/10 01:56:00;;;;;;;53.85;10.65;;;;;;;4.83;80.79;100442.41;1734493;81;21233;-58
2022/12/10 02:04:28;;;;;;;59.48;11.05;;;;;;;4.61;80.57;100449.39;1803555;78;21195;-55
2022/12/10 02:12:54;;;;;;;68.37;10.60;;;;;;;4.57;80.90;100429.83;1804620;79;21210;-55
2022/12/10 02:16:22;;;;;;;57.05;10.43;;;;;;;4.62;80.97;100432.12;1678941;85;21816;-54
2022/12/10 02:20:36;;;;;;;44.83;10.68;;;;;;;4.63;81.06;100421.14;1735786;78;21386;-59
2022/12/10 02:28:02;;;;;;;38.63;10.50;;;;;;;4.79;81.22;100414.35;1847137;76;22912;-54
2022/12/10 02:36:03;;;;;;;34.23;10.03;;;;;;;4.93;81.37;100417.50;1872149;75;22340;-55
2022/12/10 02:44:02;;;;;;;34.33;10.93;;;;;;;4.90;81.17;100438.13;1825937;77;21200;-59
2022/12/10 02:48:12;;;;;;;28.70;9.55;;;;;;;4.87;81.11;100434.34;1833293;76;21173;-58
2022/12/10 02:52:29;;;;;;;30.52;9.80;;;;;;;4.88;81.18;100432.50;1713678;81;21231;-59
2022/12/10 03:00:15;;;;;;;23.12;9.98;;;;;;;4.92;81.10;100416.29;1842172;75;22816;-55
2022/12/10 03:18:29;;;;;;;53.70;9.35;;;;;;;4.97;81.22;100390.97;1827348;76;22265;-55
2022/12/10 03:26:25;;;;;;;41.80;10.45;;;;;;;4.93;81.28;100387.67;1618657;83;21324;-55
2022/12/10 03:30:10;;;;;;;44.27;11.05;;;;;;;4.99;81.20;100380.35;1849165;75;22282;-58
2022/12/10 03:33:54;;;;;;;37.78;10.90;;;;;;;4.92;81.15;100386.45;1822774;78;21229;-59
2022/12/10 03:41:08;;;;;;;49.40;11.00;;;;;;;4.90;81.16;100387.12;1723404;80;21395;-59
2022/12/10 03:49:07;;;;;;;32.35;11.00;;;;;;;4.83;81.00;100376.45;1722492;80;21708;-54
2022/12/10 04:07:36;;;;;;;36.10;9.58;;;;;;;4.69;81.13;100383.14;1861331;76;22255;-54
2022/12/10 04:11:22;;;;;;;33.02;12.13;;;;;;;4.65;81.21;100384.92;1756718;79;21666;-55
2022/12/10 04:30:00;;;;;;;26.77;10.55;;;;;;;4.53;81.51;100402.61;1842129;76;22265;-55
2022/12/10 04:33:11;;;;;;;26.35;10.95;;;;;;;4.44;81.50;100400.73;1802738;78;21351;-59
2022/12/10 04:36:32;;;;;;;23.35;10.32;;;;;;;4.45;81.69;100405.19;1760008;80;21691;-60
2022/12/10 04:40:32;;;;;;;22.10;10.05;;;;;;;4.48;81.70;100405.39;1759890;80;21229;-59
2022/12/10 04:44:35;;;;;;;25.80;9.90;;;;;;;4.51;81.70;100410.05;1755801;79;21355;-55
2022/12/10 04:48:25;;;;;;;23.25;10.70;;;;;;;4.54;81.78;100396.22;1770855;79;21225;-56
2022/12/10 04:52:25;;;;;;;18.35;10.38;;;;;;;4.59;81.82;100403.45;1768266;80;21197;-55
2022/12/10 04:56:32;;;;;;;21.00;11.12;;;;;;;4.63;81.83;100406.23;1766118;79;21244;-60
2022/12/10 05:00:11;;;;;;;26.12;11.63;;;;;;;4.68;81.86;100404.97;1778260;79;21945;-61
2022/12/10 05:04:10;;;;;;;21.77;11.30;;;;;;;4.67;81.80;100397.81;1768878;79;21785;-60
2022/12/10 05:07:36;;;;;;;23.20;11.38;;;;;;;4.66;81.84;100409.66;1767959;80;21196;-59
2022/12/10 05:11:16;;;;;;;21.02;11.35;;;;;;;4.68;81.86;100406.33;1768446;80;21165;-56
2022/12/10 05:14:40;;;;;;;22.25;11.90;;;;;;;4.69;81.88;100410.75;1772066;79;21180;-56
2022/12/10 05:18:21;;;;;;;20.08;11.22;;;;;;;4.68;81.88;100411.75;1775351;79;21177;-54
2022/12/10 05:25:57;;;;;;;23.85;11.70;;;;;;;4.67;81.96;100396.45;1782440;80;21406;-55
2022/12/10 05:29:16;;;;;;;28.57;14.13;;;;;;;4.78;82.12;100400.41;1856754;76;22277;-56
2022/12/10 05:33:03;;;;;;;25.77;14.00;;;;;;;4.76;82.17;100394.30;1804919;79;21208;-56
2022/12/10 05:37:14;;;;;;;23.10;11.63;;;;;;;4.82;82.24;100411.36;1803108;79;21658;-57
2022/12/10 05:41:01;;;;;;;20.25;12.10;;;;;;;4.87;82.21;100408.57;1804864;79;22115;-56
2022/12/10 05:45:17;;;;;;;24.05;12.37;;;;;;;4.85;82.14;100413.30;1805280;79;21197;-59
2022/12/10 05:48:32;;;;;;;22.93;13.93;;;;;;;4.87;82.11;100410.45;1784390;78;21267;-55
2022/12/10 05:52:08;;;;;;;19.75;11.35;;;;;;;4.87;82.05;100408.57;1678777;85;21826;-55
2022/12/10 05:55:54;;;;;;;21.55;12.25;;;;;;;4.86;82.01;100404.16;1691229;84;21535;-54
2022/12/10 06:02:38;;;;;;;;;;;;;;;4.81;81.99;100412.34;1685722;85;21275;-55
2022/12/10 06:06:16;;;;;;;24.47;12.40;;;;;;;4.77;82.03;100416.34;1666860;84;20581;-56
2022/12/10 06:09:55;;;;;;;28.92;12.55;;;;;;;4.74;82.12;100413.91;1688651;83;21617;-56
2022/12/10 06:13:32;;;;;;;;;;;;;;;4.73;82.16;100410.81;1667642;84;21243;-54
2022/12/10 06:17:08;;;;;;;26.27;12.82;;;;;;;4.72;82.23;100406.39;1626437;88;20250;-56
2022/12/10 06:25:17;;;;;;;24.02;14.15;;;;;;;4.68;82.39;100399.55;1677504;78;21394;-55
2022/12/10 06:29:13;;;;;;;22.87;13.35;;;;;;;4.71;82.54;100410.12;1624252;87;21300;-55
2022/12/10 06:32:51;;;;;;;24.95;15.55;;;;;;;4.74;82.63;100422.88;1674196;85;21256;-54
2022/12/10 06:36:48;;;;;;;26.90;14.98;;;;;;;4.73;82.63;100406.75;1674004;85;21228;-54
2022/12/10 06:40:26;;;;;;;23.70;15.38;;;;;;;4.77;82.73;100399.58;1672782;84;21777;-56
2022/12/10 06:44:19;;;;;;;21.05;13.78;;;;;;;4.80;82.71;100401.14;1622828;87;21565;-55
2022/12/10 06:48:12;;;;;;;23.12;14.45;;;;;;;4.81;82.70;100393.35;1652114;85;21804;-56
2022/12/10 06:51:58;;;;;;;26.42;14.03;;;;;;;4.89;82.76;100386.73;1849380;75;22854;-55
2022/12/10 06:55:20;;;;;;;24.18;13.05;;;;;;;4.84;82.73;100396.66;1779332;79;21183;-55
2022/12/10 06:58:56;;;;;;;25.65;14.00;;;;;;;4.81;82.64;100398.29;1745848;77;22146;-55
2022/12/10 07:02:58;;;;;;;22.75;13.90;;;;;;;4.84;82.77;100387.65;1693486;81;21234;-55
2022/12/10 07:06:23;;;;;;;25.77;13.85;;;;;;;4.86;82.73;100389.73;1715178;79;21215;-56
2022/12/10 07:09:51;;;;;;;23.02;14.10;;;;;;;4.86;82.76;100393.31;1694784;80;21796;-54
2022/12/10 07:13:56;;;;;;;28.57;14.00;;;;;;;4.90;82.80;100397.97;1745640;78;21251;-55
2022/12/10 07:17:45;;;;;;;22.30;13.40;;;;;;;4.89;82.72;100389.45;1686531;81;21806;-56
2022/12/10 07:21:47;;;;;;;25.02;14.47;;;;;;;4.90;82.70;100366.77;1767876;76;21519;-55
2022/12/10 07:25:16;;;;;;;21.77;12.90;;;;;;;4.90;82.66;100355.92;1713999;78;21207;-54
2022/12/10 07:33:12;;;;;;;27.10;13.80;;;;;;;4.86;82.66;100349.05;1699612;79;21220;-55
2022/12/10 07:36:54;;;;;;;23.98;13.98;;;;;;;4.85;82.75;100339.22;1650617;81;21306;-60
2022/12/10 07:40:12;;;;;;;22.22;14.03;;;;;;;4.85;82.81;100330.59;1715954;77;21210;-59
2022/12/10 07:47:13;;;;;;;33.15;17.45;;;;;;;4.96;82.97;100329.59;1876419;76;22237;-60
2022/12/10 07:50:52;;;;;;;33.18;18.98;;;;;;;4.92;82.92;100325.43;1703339;84;21237;-55
2022/12/10 07:54:18;;;;;;;32.65;18.52;;;;;;;4.94;82.96;100314.81;1759363;77;21240;-60
2022/12/10 08:01:49;;;;;;;32.78;18.95;;;;;;;5.05;83.08;100316.52;1648930;85;21272;-54
2022/12/10 08:05:29;;;;;;;35.05;20.65;;;;;;;5.11;83.12;100323.59;1617578;88;21652;-55
2022/12/10 08:09:33;;;;;;;35.95;21.87;;;;;;;5.10;83.06;100311.53;1616134;88;21258;-55
2022/12/10 08:12:54;;;;;;;44.13;28.73;;;;;;;5.18;83.11;100311.19;1860628;76;27967;-54
2022/12/10 08:16:33;;;;;;;38.67;24.05;;;;;;;5.20;83.04;100296.95;1805056;79;21251;-55
2022/12/10 08:20:01;;;;;;;32.80;20.08;;;;;;;5.24;82.98;100282.60;1798659;79;21247;-56
2022/12/10 08:24:09;;;;;;;37.40;22.37;;;;;;;5.23;83.01;100268.69;1785531;79;21354;-55
2022/12/10 08:27:57;;;;;;;30.65;19.52;;;;;;;5.22;83.05;100265.60;1780539;79;21232;-60
2022/12/10 08:31:33;;;;;;;30.85;19.20;;;;;;;5.25;83.15;100253.13;1804288;79;21788;-60
2022/12/10 08:35:14;;;;;;;;;;;;;;;5.25;83.16;100261.27;1787043;79;21185;-54
2022/12/10 08:39:18;;;;;;;36.38;21.73;;;;;;;5.27;83.23;100253.33;1802055;79;20201;-60
2022/12/10 08:42:41;;;;;;;31.93;19.12;;;;;;;5.25;83.19;100263.46;1804549;79;21358;-53
2022/12/10 08:46:18;;;;;;;;;;;;;;;5.22;83.17;100242.54;1794643;79;21775;-60
2022/12/10 08:50:05;;;;;;;27.52;15.20;;;;;;;5.20;83.16;100244.56;1803973;79;20636;-55
2022/12/10 08:54:06;;;;;;;26.90;16.50;;;;;;;5.18;83.15;100236.57;1804474;79;21200;-55
2022/12/10 08:58:00;;;;;;;24.75;15.13;;;;;;;5.16;83.19;100243.13;1786999;79;21247;-55
2022/12/10 09:01:33;;;;;;;30.85;18.35;;;;;;;5.16;83.24;100228.20;1673409;85;21245;-56
2022/12/10 09:05:32;;;;;;;29.10;16.77;;;;;;;5.20;83.30;100201.16;1634238;84;21236;-59
2022/12/10 09:09:09;;;;;;;30.05;16.25;;;;;;;5.30;83.39;100184.32;1645416;86;21316;-60
2022/12/10 09:12:57;;;;;;;27.32;14.73;;;;;;;5.48;83.46;100160.84;1843998;75;22250;-54
2022/12/10 09:16:27;;;;;;;23.30;13.75;;;;;;;5.46;83.41;100156.92;1760256;79;21377;-55
2022/12/10 09:19:53;;;;;;;25.92;14.47;;;;;;;5.57;83.31;100143.65;1828916;76;22293;-55
2022/12/10 09:23:20;;;;;;;27.35;15.85;;;;;;;5.59;83.38;100149.80;1766268;80;21875;-55
2022/12/10 09:26:56;;;;;;;;;;;;;;;5.69;83.36;100145.19;1774062;80;21714;-55
2022/12/10 09:30:19;;;;;;;23.47;13.75;;;;;;;5.83;83.34;100151.50;1829776;76;22313;-55
2022/12/10 09:37:14;;;;;;;27.60;15.53;;;;;;;5.80;83.12;100142.27;1803077;79;21296;-60
2022/12/10 09:40:58;;;;;;;30.48;15.68;;;;;;;5.85;83.21;100125.88;1800696;79;21342;-60
2022/12/10 09:44:30;;;;;;;28.67;14.80;;;;;;;5.94;83.33;100105.11;1782474;79;21593;-60
2022/12/10 09:47:57;;;;;;;23.52;14.10;;;;;;;6.01;83.30;100091.24;1762109;81;21608;-59
2022/12/10 09:51:42;;;;;;;22.00;13.15;;;;;;;6.17;83.44;100075.63;1819103;78;22274;-59
2022/12/10 09:55:14;;;;;;;26.20;15.45;;;;;;;6.20;83.51;100083.47;1708893;83;21233;-60
2022/12/10 09:59:17;;;;;;;26.27;15.13;;;;;;;6.28;83.50;100095.78;1720310;83;21304;-54
2022/12/10 10:03:53;;;;;;;27.15;16.30;;;;;;;6.35;83.52;100094.13;1665604;84;21455;-59
2022/12/10 10:11:00;;;;;;;32.23;17.85;;;;;;;6.43;83.52;100073.81;1857666;76;22661;-54
2022/12/10 10:14:44;;;;;;;38.33;17.98;;;;;;;6.38;83.52;100078.36;1718032;82;21275;-54
2022/12/10 10:18:51;;;;;;;37.77;19.13;;;;;;;6.39;83.54;100059.67;1798344;79;21347;-59
2022/12/10 10:22:32;;;;;;;37.10;17.95;;;;;;;6.49;83.63;100054.14;1877662;76;22211;-54
2022/12/10 10:25:58;;;;;;;34.78;19.95;;;;;;;6.43;83.66;100047.48;1720370;82;21193;-60
2022/12/10 10:29:28;;;;;;;29.80;17.95;;;;;;;6.46;83.69;100034.94;1733766;82;21229;-54
2022/12/10 10:48:16;;;;;;;32.28;17.17;;;;;;;6.62;83.88;99987.47;1883155;75;22254;-53
2022/12/10 10:52:17;;;;;;;31.12;17.30;;;;;;;6.56;83.90;99982.68;1767158;80;21357;-54
2022/12/10 10:55:57;;;;;;;31.43;17.30;;;;;;;6.60;84.00;99965.51;1652644;85;21230;-54
2022/12/10 11:00:03;;;;;;;33.90;17.00;;;;;;;6.63;84.05;99952.98;1674275;85;21215;-55
2022/12/10 11:03:16;;;;;;;30.35;16.57;;;;;;;6.65;84.05;99954.52;1672725;85;21705;-55
2022/12/10 11:11:19;;;;;;;28.85;17.02;;;;;;;6.68;84.14;99948.75;1732709;83;21741;-60
2022/12/10 11:15:11;;;;;;;34.70;17.27;;;;;;;6.72;84.18;99931.11;1679181;84;21968;-60
2022/12/10 11:19:08;;;;;;;29.15;16.37;;;;;;;6.72;84.19;99937.91;1687784;83;21220;-59
2022/12/10 11:22:39;;;;;;;28.55;15.38;;;;;;;6.77;84.21;99930.08;1856889;76;22203;-59
2022/12/10 11:27:03;;;;;;;26.90;15.90;;;;;;;6.73;84.28;99931.44;1735869;81;21232;-59
2022/12/10 11:30:52;;;;;;;30.35;17.15;;;;;;;6.78;84.40;99927.73;1802639;79;21158;-54
2022/12/10 11:34:51;;;;;;;27.42;16.25;;;;;;;6.86;84.59;99930.98;1802162;78;21508;-54
2022/12/10 11:39:09;;;;;;;29.82;16.25;;;;;;;6.93;84.69;99915.20;1791839;79;21406;-60
2022/12/10 11:42:44;;;;;;;25.60;15.93;;;;;;;6.98;84.79;99904.67;1798455;79;21325;-59
2022/12/10 11:46:39;;;;;;;29.65;16.27;;;;;;;7.08;84.92;99903.18;1794310;79;21450;-59
2022/12/10 11:50:30;;;;;;;26.42;16.30;;;;;;;7.15;85.03;99896.07;1775038;79;21734;-53
2022/12/10 11:54:42;;;;;;;32.60;18.40;;;;;;;7.30;85.08;99891.17;1885165;74;22251;-58
2022/12/10 12:24:42;;;;;;;19.32;12.37;;;;;;;7.29;85.25;99870.39;1774001;80;21216;-54
2022/12/10 12:57:40;;;;;;;22.45;13.50;;;;;;;7.50;85.52;99850.34;1817383;77;22299;-54
2022/12/10 13:01:29;;;;;;;22.17;13.70;;;;;;;7.47;85.54;99846.59;1748335;79;21492;-54
2022/12/10 13:05:27;;;;;;;17.90;13.45;;;;;;;7.50;85.62;99847.62;1697572;80;21240;-58
2022/12/10 13:09:26;;;;;;;21.17;13.55;;;;;;;7.52;85.60;99842.00;1679488;80;21723;-54
2022/12/10 13:13:19;;;;;;;18.12;12.43;;;;;;;7.52;85.59;99848.31;1659755;83;21290;-54
2022/12/10 13:16:58;;;;;;;18.07;12.82;;;;;;;7.54;85.58;99851.72;1700790;81;21205;-53
2022/12/10 13:20:56;;;;;;;17.95;12.95;;;;;;;7.53;85.57;99848.64;1694965;83;21292;-53
2022/12/10 13:24:29;;;;;;;20.45;14.13;;;;;;;7.52;85.56;99848.31;1709377;80;21276;-54
2022/12/10 13:28:30;;;;;;;21.15;14.03;;;;;;;7.57;85.60;99849.16;1852725;76;22251;-59
2022/12/10 13:32:30;;;;;;;20.00;14.15;;;;;;;7.53;85.63;99861.42;1745734;79;21260;-59
2022/12/10 13:36:21;;;;;;;21.17;14.17;;;;;;;7.56;85.73;99860.55;1791885;79;21192;-59
2022/12/10 13:40:07;;;;;;;20.57;14.73;;;;;;;7.58;85.74;99855.80;1782432;79;21216;-59
2022/12/10 13:47:59;;;;;;;28.00;16.55;;;;;;;7.68;85.84;99843.37;1767466;77;21200;-59
2022/12/10 13:55:22;;;;;;;27.70;16.82;;;;;;;7.69;85.70;99836.06;1770762;79;21145;-59
2022/12/10 13:59:23;;;;;;;24.27;15.88;;;;;;;7.72;85.81;99828.91;1796507;79;21335;-59
2022/12/10 14:03:24;;;;;;;30.15;19.48;;;;;;;7.75;85.82;99835.36;1795034;79;21864;-54
2022/12/10 14:07:22;;;;;;;29.37;18.52;;;;;;;7.78;85.84;99822.26;1803244;79;21236;-60
2022/12/10 14:11:20;;;;;;;30.85;20.15;;;;;;;7.81;85.83;99814.23;1789830;79;21703;-59
2022/12/10 14:15:13;;;;;;;34.75;19.50;;;;;;;7.88;85.78;99801.64;1827167;76;22454;-59
2022/12/10 14:18:30;;;;;;;;;;;;;;;7.81;85.78;99809.66;1806242;77;21275;-59
2022/12/10 14:26:04;;;;;;;38.23;21.25;;;;;;;7.80;85.85;99811.19;1803794;79;21749;-54
2022/12/10 14:29:59;;;;;;;36.15;21.62;;;;;;;7.80;85.89;99813.91;1788410;79;21193;-54
2022/12/10 14:33:40;;;;;;;35.88;22.32;;;;;;;7.87;85.99;99816.27;1882871;74;22842;-54
2022/12/10 14:41:19;;;;;;;32.90;20.48;;;;;;;7.84;86.04;99813.89;1783466;79;21200;-54
2022/12/10 14:49:05;;;;;;;33.58;20.20;;;;;;;7.92;86.11;99800.26;1783603;79;21260;-54
2022/12/10 14:52:58;;;;;;;36.00;20.27;;;;;;;7.94;86.13;99784.59;1784520;79;21239;-54
2022/12/10 14:56:36;;;;;;;27.90;16.87;;;;;;;7.94;86.10;99779.14;1749966;82;21208;-55
2022/12/10 15:00:23;;;;;;;29.20;18.32;;;;;;;7.95;86.17;99774.88;1758010;80;21350;-59
2022/12/10 15:03:56;;;;;;;26.55;16.85;;;;;;;7.99;86.25;99771.30;1749700;80;21279;-59
2022/12/10 15:11:16;;;;;;;25.27;16.05;;;;;;;8.01;86.31;99774.71;1670589;86;21261;-55
2022/12/10 15:14:53;;;;;;;28.38;15.20;;;;;;;8.03;86.39;99787.63;1687590;84;21297;-54
2022/12/10 15:18:29;;;;;;;24.72;15.28;;;;;;;8.06;86.49;99776.38;1705657;83;22072;-54
2022/12/10 15:22:28;;;;;;;19.85;12.90;;;;;;;8.10;86.58;99766.34;1681106;84;21262;-59
2022/12/10 15:26:40;;;;;;;22.15;13.50;;;;;;;8.14;86.69;99755.91;1701022;83;21226;-59
2022/12/10 15:30:10;;;;;;;20.82;13.03;;;;;;;8.21;86.78;99765.09;1671807;85;21246;-59
2022/12/10 15:33:49;;;;;;;23.10;13.93;;;;;;;8.23;86.83;99753.02;1599470;88;21284;-59
2022/12/10 15:37:01;;;;;;;19.07;13.13;;;;;;;8.27;86.92;99750.79;1606551;88;21227;-59
2022/12/10 15:40:37;;;;;;;17.67;11.85;;;;;;;8.31;86.95;99760.33;1638378;85;22149;-58
2022/12/10 15:44:28;;;;;;;21.60;12.00;;;;;;;8.35;87.03;99769.34;1641519;85;21749;-54
2022/12/10 15:48:34;;;;;;;22.32;12.85;;;;;;;8.42;87.05;99773.05;1640586;87;21793;-58
2022/12/10 15:52:16;;;;;;;19.05;12.20;;;;;;;8.45;87.05;99769.13;1618494;87;21241;-58
2022/12/10 15:55:49;;;;;;;20.65;12.45;;;;;;;8.48;87.12;99765.51;1685150;83;21220;-54
2022/12/10 15:59:37;;;;;;;18.27;11.57;;;;;;;8.52;87.17;99758.69;1683204;84;21602;-54
2022/12/10 16:13:36;;;;;;;18.67;12.37;;;;;;;8.67;87.38;99751.43;1840399;77;22269;-59
2022/12/10 16:17:16;;;;;;;26.70;14.98;;;;;;;8.66;87.44;99753.84;1749972;80;21223;-54
2022/12/10 16:20:58;;;;;;;27.58;16.67;;;;;;;8.68;87.51;99757.75;1750303;79;21189;-59
2022/12/10 16:24:21;;;;;;;16.80;12.35;;;;;;;8.72;87.55;99749.55;1759671;80;21209;-55
2022/12/10 16:27:47;;;;;;;19.25;12.23;;;;;;;8.74;87.59;99751.56;1796396;79;21801;-60
2022/12/10 16:31:32;;;;;;;20.30;11.33;;;;;;;8.77;87.64;99753.43;1764055;81;21201;-60
2022/12/10 16:34:58;;;;;;;15.35;11.00;;;;;;;8.83;87.71;99751.88;1749824;81;21244;-60
2022/12/10 16:38:26;;;;;;;16.17;10.65;;;;;;;8.87;87.81;99757.30;1742826;80;21327;-54
2022/12/10 16:41:50;;;;;;;16.20;11.78;;;;;;;8.92;87.85;99754.38;1744518;81;21312;-54
2022/12/10 16:45:22;;;;;;;19.65;13.35;;;;;;;8.96;87.90;99763.02;1763069;79;21177;-55
2022/12/10 16:48:50;;;;;;;20.20;12.73;;;;;;;9.01;87.95;99760.61;1795461;80;21797;-60
2022/12/10 16:52:14;;;;;;;17.12;11.83;;;;;;;9.05;87.98;99767.42;1795366;80;21217;-55
2022/12/10 16:55:37;;;;;;;17.98;11.75;;;;;;;9.07;88.00;99757.14;1793665;79;21437;-54
2022/12/10 16:59:06;;;;;;;17.00;11.25;;;;;;;9.10;88.03;99749.98;1795689;79;21220;-55
2022/12/10 17:02:37;;;;;;;13.98;10.60;;;;;;;9.12;88.05;99749.27;1796008;79;21402;-56
2022/12/10 17:05:51;;;;;;;18.45;10.75;;;;;;;9.17;88.11;99747.34;1795660;80;21217;-54
2022/12/10 17:09:15;;;;;;;14.93;10.70;;;;;;;9.20;88.15;99749.20;1796015;80;21835;-54
2022/12/10 17:12:30;;;;;;;19.00;11.30;;;;;;;9.22;88.17;99752.61;1796246;78;21347;-55
2022/12/10 17:16:03;;;;;;;25.02;17.10;;;;;;;9.25;88.18;99756.34;1797321;79;21176;-55
2022/12/10 17:19:44;;;;;;;26.75;15.53;;;;;;;9.28;88.22;99749.65;1797795;80;21748;-54
2022/12/10 17:23:13;;;;;;;29.87;15.68;;;;;;;9.31;88.22;99742.48;1798596;79;21341;-55
2022/12/10 17:26:41;;;;;;;31.27;15.40;;;;;;;9.34;88.27;99747.58;1750028;81;21227;-55
2022/12/10 17:30:03;;;;;;;32.70;16.97;;;;;;;9.34;88.28;99734.75;1733212;81;21653;-55
2022/12/10 17:33:35;;;;;;;28.85;16.05;;;;;;;9.36;88.32;99734.56;1746738;80;21218;-55
2022/12/10 17:36:59;;;;;;;37.17;18.30;;;;;;;9.38;88.31;99737.46;1758861;79;21185;-59
2022/12/10 17:40:31;;;;;;;33.18;15.50;;;;;;;9.36;88.26;99731.33;1757150;81;21216;-60
2022/12/10 17:44:06;;;;;;;37.30;16.27;;;;;;;9.37;88.29;99733.02;1742195;80;21487;-60
2022/12/10 17:47:51;;;;;;;32.98;17.80;;;;;;;9.38;88.32;99729.77;1769570;80;21797;-60
2022/12/10 17:51:27;;;;;;;21.85;13.58;;;;;;;9.39;88.31;99727.39;1797481;79;21456;-60
2022/12/10 17:54:46;;;;;;;28.65;13.78;;;;;;;9.39;88.31;99730.95;1796381;79;21204;-60
2022/12/10 17:58:39;;;;;;;23.57;13.72;;;;;;;9.39;88.30;99740.52;1798153;79;21252;-60
2022/12/10 18:02:25;;;;;;;23.42;13.70;;;;;;;9.40;88.33;99742.73;1776835;79;21229;-61
2022/12/10 18:06:38;;;;;;;25.20;14.40;;;;;;;9.40;88.33;99744.97;1797143;79;21934;-60
2022/12/10 18:10:29;;;;;;;31.48;14.35;;;;;;;9.41;88.33;99732.98;1715131;79;21458;-59
2022/12/10 18:13:55;;;;;;;26.40;17.20;;;;;;;9.46;88.29;99733.30;1847492;76;28574;-60
2022/12/10 18:17:19;;;;;;;30.75;15.72;;;;;;;9.45;88.13;99730.75;1766732;79;21200;-60
2022/12/10 18:20:46;;;;;;;28.07;14.53;;;;;;;9.51;88.02;99731.38;1857592;76;22199;-55
2022/12/10 18:24:11;;;;;;;22.87;12.53;;;;;;;9.44;88.02;99724.93;1721764;82;21307;-60
2022/12/10 18:28:08;;;;;;;28.47;14.43;;;;;;;9.41;88.04;99722.58;1798822;78;21877;-60
2022/12/10 18:31:44;;;;;;;24.52;14.13;;;;;;;9.41;88.13;99730.77;1770922;80;22139;-55
2022/12/10 18:39:47;;;;;;;22.98;11.83;;;;;;;9.42;88.19;99727.85;1771441;80;21221;-55
2022/12/10 18:43:16;;;;;;;16.65;11.50;;;;;;;9.42;88.23;99727.85;1762186;80;21352;-54
2022/12/10 18:47:11;;;;;;;27.93;11.60;;;;;;;9.41;88.21;99720.70;1763106;81;21362;-55
2022/12/10 18:50:37;;;;;;;25.50;12.43;;;;;;;9.42;88.25;99730.58;1765829;80;21690;-61
2022/12/10 18:54:06;;;;;;;23.15;12.20;;;;;;;9.45;88.32;99722.55;1772117;80;21228;-60
2022/12/10 18:57:31;;;;;;;24.87;13.50;;;;;;;9.46;88.29;99727.83;1769043;80;21168;-60
2022/12/10 19:00:59;;;;;;;29.67;13.20;;;;;;;9.46;88.23;99733.80;1764962;80;21253;-60
2022/12/10 19:04:31;;;;;;;22.67;14.38;;;;;;;9.47;88.29;99734.98;1799436;78;21216;-59
2022/12/10 19:07:43;;;;;;;24.02;12.53;;;;;;;9.49;88.34;99745.22;1767412;80;21197;-61
2022/12/10 19:11:17;;;;;;;24.57;13.78;;;;;;;9.57;88.34;99739.68;1866356;76;22798;-56
2022/12/10 19:14:55;;;;;;;28.30;14.50;;;;;;;9.52;88.30;99742.62;1809802;76;21196;-55
2022/12/10 19:18:44;;;;;;;22.05;12.58;;;;;;;9.52;88.32;99743.48;1793928;78;21208;-56
2022/12/10 19:22:28;;;;;;;24.85;13.65;;;;;;;9.54;88.33;99746.88;1794314;79;21207;-55
2022/12/10 19:26:27;;;;;;;34.03;16.85;;;;;;;9.55;88.37;99739.52;1771904;80;21628;-54
2022/12/10 19:30:05;;;;;;;24.87;14.83;;;;;;;9.53;88.26;99735.59;1779580;80;21981;-54
2022/12/10 19:33:37;;;;;;;22.95;14.05;;;;;;;9.50;88.25;99734.61;1776412;80;21755;-55
2022/12/10 19:36:54;;;;;;;33.18;15.85;;;;;;;9.50;88.28;99729.14;1779665;80;21681;-55
2022/12/10 19:40:38;;;;;;;24.77;13.22;;;;;;;9.51;88.28;99740.42;1756277;80;21392;-55
2022/12/10 19:43:57;;;;;;;31.33;14.33;;;;;;;9.50;88.31;99734.61;1764621;80;21810;-55
2022/12/10 19:47:33;;;;;;;25.10;13.68;;;;;;;9.52;88.33;99740.74;1780343;80;21401;-55
2022/12/10 19:51:24;;;;;;;29.67;14.90;;;;;;;9.53;88.36;99741.06;1769701;80;21195;-62
2022/12/10 19:54:49;;;;;;;27.73;13.85;;;;;;;9.54;88.35;99749.61;1773775;81;21451;-56
2022/12/10 19:58:24;;;;;;;32.23;15.28;;;;;;;9.56;88.39;99746.69;1775612;80;21180;-55
2022/12/10 20:02:09;;;;;;;22.95;13.05;;;;;;;9.58;88.47;99752.30;1763208;80;21680;-60
2022/12/10 20:05:36;;;;;;;29.20;12.70;;;;;;;9.62;88.53;99756.87;1713973;82;21264;-60
2022/12/10 20:12:55;;;;;;;28.90;14.83;;;;;;;9.62;88.39;99754.15;1742902;82;21630;-55
2022/12/10 20:16:41;;;;;;;26.65;14.65;;;;;;;9.58;88.28;99756.89;1743620;82;21230;-60
2022/12/10 20:20:28;;;;;;;26.93;13.53;;;;;;;9.55;88.31;99756.77;1760989;81;21220;-60
2022/12/10 20:24:16;;;;;;;20.52;13.50;;;;;;;9.50;88.34;99753.73;1758885;80;21252;-54
2022/12/10 20:27:54;;;;;;;24.32;13.25;;;;;;;9.47;88.36;99746.41;1759193;81;21749;-56
2022/12/10 20:31:28;;;;;;;22.65;12.35;;;;;;;9.48;88.47;99748.13;1885583;76;22266;-54
2022/12/10 20:35:07;;;;;;;18.87;12.68;;;;;;;9.43;88.54;99741.00;1816160;78;21375;-54
2022/12/10 20:47:16;;;;;;;24.27;14.50;;;;;;;9.44;88.77;99750.88;1810731;79;21508;-60
2022/12/10 20:50:48;;;;;;;21.07;12.15;;;;;;;9.42;88.79;99763.90;1788423;79;21437;-59
2022/12/10 20:54:34;;;;;;;24.47;14.38;;;;;;;9.40;88.85;99768.69;1769991;77;21487;-59
2022/12/10 20:57:57;;;;;;;29.00;14.53;;;;;;;9.41;88.95;99765.77;1745824;81;21244;-59
2022/12/10 21:01:36;;;;;;;20.65;13.15;;;;;;;9.42;88.97;99763.36;1750062;81;21455;-55
2022/12/10 21:08:56;;;;;;;22.35;13.28;;;;;;;9.47;89.01;99767.77;1956233;73;22831;-55
2022/12/10 21:12:57;;;;;;;25.35;12.80;;;;;;;9.42;89.06;99768.82;1922359;74;21174;-59
2022/12/10 21:16:31;;;;;;;25.20;12.35;;;;;;;9.45;89.13;99778.02;1912476;75;21307;-59
2022/12/10 21:34:51;;;;;;;21.57;12.45;;;;;;;9.47;89.22;99767.77;1884991;76;22305;-54
2022/12/10 21:38:37;;;;;;;22.58;13.72;;;;;;;9.41;89.31;99763.04;1755272;80;21243;-54
2022/12/10 21:46:16;;;;;;;33.95;17.50;;;;;;;9.49;89.33;99781.23;1804187;74;28269;-55
2022/12/10 21:49:47;;;;;;;25.55;14.33;;;;;;;9.47;89.20;99778.69;1758990;77;21249;-60
2022/12/10 21:53:32;;;;;;;28.02;13.83;;;;;;;9.46;89.11;99787.93;1761200;78;21256;-60
2022/12/10 21:56:57;;;;;;;35.68;13.93;;;;;;;9.45;89.12;99790.84;1738938;79;21748;-59
2022/12/10 22:01:02;;;;;;;40.80;14.60;;;;;;;9.42;89.18;99790.67;1728222;77;21403;-59
2022/12/10 22:08:30;;;;;;;27.93;13.75;;;;;;;9.41;89.19;99796.33;1730241;78;21719;-54
2022/12/10 22:12:10;;;;;;;31.70;15.40;;;;;;;9.39;89.26;99795.68;1726322;78;21244;-55
2022/12/10 22:15:49;;;;;;;36.25;15.88;;;;;;;9.39;89.30;99782.02;1740785;79;21857;-54